Samail, Oman
Current Conditions -  °F | °C
As of 8:50 AM on Wednesday 22 Oct 2014 (Local Time) from EQMN Reporting Station
Clear Clear  
Wind Chill: 91°   Ceiling: Unl
Heat Index: 91°   Visibility: 6mi
Dew Point: 59°   Wind: 2mph
Humidity: 34%   Direction: 30°NNE
Pressure: 30"   Gusts: NA
Location:  23.3°N, 57.93°E
Report Text: EQMN 220450Z 03002KT 9999 SKC 33/15 Q1016 BLU NOSIG
Loading
Personal Weather Stations






























Interactive Weather Map
Tropical Storm Tracking
New forecast layout! Learn more

10-Day Weather Forecast

Advertisements
Track Severe Weather on mobile